AEE215 LGRP-LGAV
Flight info
| Callsign | AEE215 |
|---|---|
| Flight time | N/A |
| Altitude | 30000 |
| Route | CODIC UL995 VARIX |
| Aircraft | A320/M-SDE3FGHIRWY/LB1 |
Departure
| Time | 2026-04-28 18:26 |
|---|---|
| Airport | Rhodes International Airport "Diagoras" (LGRP) |
Arrival
| Time | N/A |
|---|---|
| Airport | Athens Eleftherios Venizelos International Airport (LGAV) |
| Time | Latitude | Longitude | Altitude | Speed | Heading |
|---|---|---|---|---|---|
| 2026-04-28 17:42 | 36.40349 | 28.09094 | 31 ft | 0 kts | 158° |
| 2026-04-28 18:18 | 36.40356 | 28.09091 | 31 ft | 2 kts | 158° |
| 2026-04-28 18:18 | 36.40371 | 28.09084 | 31 ft | 2 kts | 159° |
| 2026-04-28 18:18 | 36.40380 | 28.09079 | 31 ft | 2 kts | 159° |
| 2026-04-28 18:19 | 36.40393 | 28.09073 | 31 ft | 2 kts | 152° |
| 2026-04-28 18:19 | 36.40404 | 28.09060 | 31 ft | 2 kts | 117° |
| 2026-04-28 18:19 | 36.40408 | 28.09042 | 31 ft | 2 kts | 88° |
| 2026-04-28 18:19 | 36.40407 | 28.09031 | 31 ft | 1 kts | 71° |
| 2026-04-28 18:20 | 36.40405 | 28.09023 | 31 ft | 0 kts | 70° |
| 2026-04-28 18:21 | 36.40420 | 28.09077 | 31 ft | 17 kts | 71° |
| 2026-04-28 18:22 | 36.40468 | 28.09242 | 31 ft | 19 kts | 70° |
| 2026-04-28 18:22 | 36.40532 | 28.09370 | 31 ft | 16 kts | 36° |
| 2026-04-28 18:22 | 36.40606 | 28.09478 | 31 ft | 16 kts | 69° |
| 2026-04-28 18:22 | 36.40646 | 28.09616 | 31 ft | 17 kts | 69° |
| 2026-04-28 18:23 | 36.40687 | 28.09756 | 31 ft | 17 kts | 71° |
| 2026-04-28 18:23 | 36.40729 | 28.09899 | 31 ft | 17 kts | 70° |
| 2026-04-28 18:23 | 36.40772 | 28.10046 | 31 ft | 18 kts | 70° |
| 2026-04-28 18:23 | 36.40815 | 28.10194 | 31 ft | 18 kts | 69° |
| 2026-04-28 18:24 | 36.40859 | 28.10346 | 30 ft | 17 kts | 70° |
| 2026-04-28 18:24 | 36.40892 | 28.10422 | 30 ft | 12 kts | 36° |
| 2026-04-28 18:24 | 36.40990 | 28.10381 | 31 ft | 11 kts | 308° |
| 2026-04-28 18:24 | 36.41025 | 28.10288 | 31 ft | 12 kts | 262° |
| 2026-04-28 18:25 | 36.40985 | 28.10150 | 31 ft | 33 kts | 248° |
| 2026-04-28 18:25 | 36.40820 | 28.09594 | 31 ft | 102 kts | 250° |
| 2026-04-28 18:25 | 36.40509 | 28.08528 | 78 ft | 153 kts | 249° |
| 2026-04-28 18:26 | 36.39999 | 28.06125 | 1415 ft | 145 kts | 263° |
| 2026-04-28 18:26 | 36.39926 | 28.04830 | 1777 ft | 159 kts | 264° |
| 2026-04-28 18:26 | 36.39853 | 28.03401 | 2131 ft | 175 kts | 264° |
| 2026-04-28 18:26 | 36.39767 | 28.01825 | 2510 ft | 192 kts | 264° |
| 2026-04-28 18:27 | 36.39663 | 28.00085 | 2826 ft | 215 kts | 264° |
| 2026-04-28 18:27 | 36.39540 | 27.98134 | 3304 ft | 234 kts | 264° |
| 2026-04-28 18:27 | 36.39408 | 27.96057 | 3820 ft | 251 kts | 264° |
| 2026-04-28 18:27 | 36.39275 | 27.93869 | 4589 ft | 259 kts | 267° |
| 2026-04-28 18:28 | 36.39569 | 27.91695 | 5467 ft | 264 kts | 288° |
| 2026-04-28 18:28 | 36.40319 | 27.89617 | 6380 ft | 267 kts | 294° |
| 2026-04-28 18:28 | 36.41152 | 27.87557 | 7249 ft | 271 kts | 294° |
| 2026-04-28 18:28 | 36.41980 | 27.85468 | 8119 ft | 273 kts | 293° |
| 2026-04-28 18:29 | 36.42795 | 27.83346 | 8980 ft | 276 kts | 292° |
| 2026-04-28 18:29 | 36.43600 | 27.81195 | 9810 ft | 278 kts | 292° |
| 2026-04-28 18:29 | 36.44413 | 27.78993 | 10546 ft | 284 kts | 292° |
| 2026-04-28 18:29 | 36.45248 | 27.76712 | 10939 ft | 300 kts | 292° |
| 2026-04-28 18:30 | 36.46135 | 27.74283 | 11279 ft | 318 kts | 292° |
| 2026-04-28 18:30 | 36.46444 | 27.73437 | 11429 ft | 322 kts | 292° |
| 2026-04-28 18:30 | 36.47985 | 27.69152 | 12577 ft | 328 kts | 292° |
| 2026-04-28 18:30 | 36.48905 | 27.66568 | 13266 ft | 331 kts | 292° |
| 2026-04-28 18:31 | 36.49831 | 27.63962 | 13921 ft | 335 kts | 292° |
| 2026-04-28 18:31 | 36.50775 | 27.61301 | 14572 ft | 338 kts | 292° |
| 2026-04-28 18:31 | 36.51409 | 27.59512 | 14998 ft | 340 kts | 292° |
| 2026-04-28 18:31 | 36.52687 | 27.55903 | 15829 ft | 344 kts | 292° |
| 2026-04-28 18:32 | 36.53642 | 27.53205 | 16423 ft | 347 kts | 292° |
| 2026-04-28 18:32 | 36.54613 | 27.50459 | 17003 ft | 350 kts | 292° |
| 2026-04-28 18:32 | 36.55597 | 27.47675 | 17550 ft | 354 kts | 292° |
| 2026-04-28 18:32 | 36.56585 | 27.44875 | 18104 ft | 357 kts | 292° |
| 2026-04-28 18:33 | 36.56915 | 27.43939 | 18288 ft | 358 kts | 292° |
| 2026-04-28 18:33 | 36.58596 | 27.39168 | 19197 ft | 363 kts | 292° |
| 2026-04-28 18:33 | 36.59607 | 27.36296 | 19718 ft | 366 kts | 292° |
| 2026-04-28 18:33 | 36.60622 | 27.33407 | 20230 ft | 368 kts | 291° |
| 2026-04-28 18:34 | 36.61655 | 27.30465 | 20741 ft | 371 kts | 291° |
| 2026-04-28 18:34 | 36.62687 | 27.27521 | 21232 ft | 374 kts | 291° |
| 2026-04-28 18:34 | 36.63728 | 27.24551 | 21711 ft | 377 kts | 291° |
| 2026-04-28 18:34 | 36.64780 | 27.21545 | 22182 ft | 379 kts | 291° |
| 2026-04-28 18:35 | 36.65830 | 27.18541 | 22641 ft | 382 kts | 291° |
| 2026-04-28 18:35 | 36.66888 | 27.15512 | 23084 ft | 385 kts | 291° |
| 2026-04-28 18:35 | 36.67955 | 27.12458 | 23522 ft | 387 kts | 291° |
| 2026-04-28 18:35 | 36.69031 | 27.09378 | 23951 ft | 390 kts | 291° |
| 2026-04-28 18:36 | 36.70108 | 27.06292 | 24375 ft | 392 kts | 291° |
| 2026-04-28 18:36 | 36.71202 | 27.03148 | 24799 ft | 394 kts | 291° |
| 2026-04-28 18:36 | 36.72285 | 27.00034 | 25203 ft | 396 kts | 291° |
| 2026-04-28 18:36 | 36.73378 | 26.96884 | 25603 ft | 398 kts | 291° |
| 2026-04-28 18:37 | 36.74471 | 26.93729 | 25997 ft | 400 kts | 291° |
| 2026-04-28 18:37 | 36.75567 | 26.90562 | 26382 ft | 402 kts | 291° |
| 2026-04-28 18:37 | 36.76683 | 26.87335 | 26768 ft | 404 kts | 291° |
| 2026-04-28 18:37 | 36.77789 | 26.84128 | 27139 ft | 405 kts | 291° |
| 2026-04-28 18:38 | 36.78898 | 26.80910 | 27487 ft | 407 kts | 291° |
| 2026-04-28 18:38 | 36.80013 | 26.77670 | 27827 ft | 410 kts | 291° |
| 2026-04-28 18:38 | 36.81135 | 26.74407 | 28162 ft | 412 kts | 291° |
| 2026-04-28 18:38 | 36.82260 | 26.71133 | 28491 ft | 414 kts | 291° |
| 2026-04-28 18:39 | 36.83400 | 26.67816 | 28813 ft | 416 kts | 291° |
| 2026-04-28 18:39 | 36.84549 | 26.64477 | 29131 ft | 417 kts | 291° |
| 2026-04-28 18:39 | 36.85682 | 26.61179 | 29434 ft | 419 kts | 291° |
| 2026-04-28 18:39 | 36.86845 | 26.57786 | 29732 ft | 421 kts | 291° |
| 2026-04-28 18:40 | 36.87987 | 26.54450 | 30019 ft | 423 kts | 291° |
| 2026-04-28 18:40 | 36.89146 | 26.51063 | 30300 ft | 425 kts | 291° |
| 2026-04-28 18:40 | 36.90306 | 26.47667 | 30600 ft | 426 kts | 291° |
| 2026-04-28 18:40 | 36.91457 | 26.44293 | 30974 ft | 424 kts | 291° |
| 2026-04-28 18:41 | 36.92609 | 26.40906 | 31355 ft | 423 kts | 291° |
| 2026-04-28 18:41 | 36.93765 | 26.37499 | 31721 ft | 422 kts | 291° |
| 2026-04-28 18:41 | 36.94902 | 26.34143 | 31970 ft | 422 kts | 290° |
| 2026-04-28 18:42 | 36.97171 | 26.27434 | 31990 ft | 421 kts | 291° |
| 2026-04-28 18:42 | 36.99449 | 26.20719 | 32008 ft | 421 kts | 291° |
| 2026-04-28 18:43 | 37.01756 | 26.13941 | 32029 ft | 428 kts | 291° |
| 2026-04-28 18:43 | 37.04029 | 26.07241 | 32040 ft | 418 kts | 291° |
| 2026-04-28 18:44 | 37.06264 | 26.00631 | 32053 ft | 412 kts | 291° |
| 2026-04-28 18:44 | 37.09597 | 25.90732 | 32059 ft | 412 kts | 291° |
| 2026-04-28 18:45 | 37.11811 | 25.84137 | 32059 ft | 412 kts | 291° |
| 2026-04-28 18:45 | 37.14035 | 25.77505 | 32060 ft | 413 kts | 291° |
| 2026-04-28 18:46 | 37.15143 | 25.74193 | 31903 ft | 413 kts | 291° |
| 2026-04-28 18:46 | 37.16251 | 25.70876 | 31629 ft | 413 kts | 291° |
| 2026-04-28 18:46 | 37.17367 | 25.67534 | 31274 ft | 407 kts | 291° |
| 2026-04-28 18:46 | 37.18435 | 25.64333 | 30870 ft | 393 kts | 291° |
| 2026-04-28 18:47 | 37.19455 | 25.61268 | 30458 ft | 383 kts | 291° |
| 2026-04-28 18:47 | 37.20475 | 25.58196 | 30034 ft | 381 kts | 291° |
| 2026-04-28 18:47 | 37.21489 | 25.55140 | 29606 ft | 378 kts | 291° |
| 2026-04-28 18:47 | 37.22493 | 25.52112 | 29178 ft | 375 kts | 291° |
| 2026-04-28 18:48 | 37.23484 | 25.49094 | 28748 ft | 372 kts | 291° |
| 2026-04-28 18:48 | 37.24436 | 25.46135 | 28325 ft | 369 kts | 290° |
| 2026-04-28 18:48 | 37.25401 | 25.43119 | 27893 ft | 366 kts | 291° |
| 2026-04-28 18:48 | 37.26338 | 25.40195 | 27471 ft | 363 kts | 291° |
| 2026-04-28 18:49 | 37.26652 | 25.39217 | 27333 ft | 362 kts | 291° |
| 2026-04-28 18:50 | 37.31199 | 25.22869 | 25083 ft | 345 kts | 287° |
| 2026-04-28 18:50 | 37.31708 | 25.20967 | 24820 ft | 343 kts | 287° |